createdAt,value
2023-02-28T00:02:43.883Z,3.40
2023-02-28T00:05:31.908Z,3.50
2023-02-28T00:08:18.559Z,3.50
2023-02-28T00:11:05.917Z,3.50
2023-02-28T00:13:52.268Z,3.67
2023-02-28T00:16:38.944Z,3.40
2023-02-28T00:19:26.109Z,3.90
2023-02-28T00:22:14.103Z,3.33
2023-02-28T00:25:00.791Z,3.50
2023-02-28T00:27:47.749Z,3.87
2023-02-28T00:30:34.415Z,3.67
2023-02-28T00:33:20.859Z,3.70
2023-02-28T00:36:09.678Z,4.30
2023-02-28T00:38:57.812Z,4.40
2023-02-28T00:41:44.257Z,5.07
2023-02-28T00:44:30.875Z,4.27
2023-02-28T00:47:17.419Z,4.60
2023-02-28T00:50:03.995Z,4.00
2023-02-28T00:52:50.744Z,4.73
2023-02-28T00:55:38.695Z,4.40
2023-02-28T00:58:25.257Z,4.70
2023-02-28T01:01:12.093Z,5.00
2023-02-28T01:03:58.637Z,4.03
2023-02-28T01:06:45.025Z,3.90
2023-02-28T01:09:31.557Z,4.63
2023-02-28T01:12:19.358Z,4.10
2023-02-28T01:15:06.797Z,4.07
2023-02-28T01:17:53.182Z,4.20
2023-02-28T01:20:39.904Z,4.17
2023-02-28T01:23:26.583Z,3.77
2023-02-28T01:26:16.057Z,4.00
2023-02-28T01:29:03.880Z,4.57
2023-02-28T01:31:50.596Z,3.30
2023-02-28T01:34:37.413Z,4.10
2023-02-28T01:37:23.982Z,4.13
2023-02-28T01:40:11.830Z,4.10
2023-02-28T01:42:58.161Z,3.77
2023-02-28T01:45:45.813Z,3.60
2023-02-28T01:48:35.077Z,3.97
2023-02-28T01:51:26.966Z,4.17
2023-02-28T01:54:18.083Z,3.80
2023-02-28T01:57:08.037Z,3.97
2023-02-28T01:59:59.530Z,4.07
2023-02-28T02:02:50.918Z,4.20
2023-02-28T02:05:40.158Z,3.77
2023-02-28T02:08:30.051Z,3.70
2023-02-28T02:11:22.318Z,3.70
2023-02-28T02:14:35.284Z,3.90
2023-02-28T02:17:30.476Z,4.00
2023-02-28T02:20:44.784Z,3.47
2023-02-28T02:24:05.003Z,3.50
2023-02-28T02:27:19.207Z,3.70
2023-02-28T02:30:35.368Z,3.50
2023-02-28T02:33:38.465Z,3.53
2023-02-28T02:36:29.737Z,3.20
2023-02-28T02:39:20.018Z,3.53
2023-02-28T02:42:16.014Z,3.67
2023-02-28T02:45:08.528Z,3.60
2023-02-28T02:47:57.470Z,3.33
2023-02-28T02:50:48.168Z,3.63
2023-02-28T02:53:41.692Z,3.00
2023-02-28T02:56:32.447Z,3.87
2023-02-28T02:59:23.278Z,3.40
2023-02-28T03:02:14.443Z,3.40
2023-02-28T03:05:04.555Z,3.60
2023-02-28T03:07:51.011Z,3.20
2023-02-28T03:10:41.906Z,3.70
2023-02-28T03:14:11.864Z,3.27
2023-02-28T03:17:22.285Z,3.43
2023-02-28T03:20:17.818Z,3.03
2023-02-28T03:23:14.654Z,3.03
2023-02-28T03:26:06.419Z,3.27
2023-02-28T03:28:58.546Z,2.97
2023-02-28T03:31:50.404Z,2.87
2023-02-28T03:34:39.922Z,3.10
2023-02-28T03:37:30.176Z,3.50
2023-02-28T03:40:19.284Z,3.23
2023-02-28T03:43:14.533Z,3.00
2023-02-28T03:46:04.509Z,2.90
2023-02-28T03:48:57.211Z,3.33
2023-02-28T03:51:44.909Z,2.97
2023-02-28T03:54:36.223Z,3.10
2023-02-28T03:57:29.112Z,2.93
2023-02-28T04:00:20.874Z,3.20
2023-02-28T04:03:07.937Z,3.03
2023-02-28T04:05:56.985Z,3.13
2023-02-28T04:08:43.469Z,3.23
2023-02-28T04:11:35.804Z,2.77
2023-02-28T04:14:22.472Z,2.90
2023-02-28T04:17:10.143Z,3.00
2023-02-28T04:19:58.540Z,2.70
2023-02-28T04:22:45.140Z,3.33
2023-02-28T04:25:31.402Z,3.27
2023-02-28T04:28:17.811Z,3.07
2023-02-28T04:31:07.087Z,3.00
2023-02-28T04:33:55.157Z,3.07
2023-02-28T04:36:42.220Z,3.13
2023-02-28T04:39:28.558Z,2.67
2023-02-28T04:42:15.594Z,2.63
2023-02-28T04:45:02.044Z,3.53
2023-02-28T04:47:48.355Z,2.63
2023-02-28T04:50:36.211Z,3.20
2023-02-28T04:53:23.553Z,2.70
2023-02-28T04:56:12.505Z,2.77
2023-02-28T04:58:58.887Z,3.10
2023-02-28T05:01:48.953Z,2.50
2023-02-28T05:04:36.193Z,2.47
2023-02-28T05:07:24.336Z,2.97
2023-02-28T05:10:12.579Z,2.70
2023-02-28T05:12:59.065Z,2.93
2023-02-28T05:15:45.468Z,3.00
2023-02-28T05:18:31.823Z,2.87
2023-02-28T05:21:27.322Z,3.10
2023-02-28T05:24:15.249Z,2.87
2023-02-28T05:27:01.965Z,3.17
2023-02-28T05:29:48.527Z,3.53
2023-02-28T05:32:35.067Z,3.13
2023-02-28T05:35:21.962Z,3.23
2023-02-28T05:38:08.581Z,3.00
2023-02-28T05:40:57.217Z,3.17
2023-02-28T05:43:43.522Z,2.90
2023-02-28T05:46:30.059Z,3.13
2023-02-28T05:49:16.408Z,3.50
2023-02-28T05:52:02.740Z,3.10
2023-02-28T05:54:49.374Z,3.23
2023-02-28T05:57:37.413Z,2.80
2023-02-28T06:00:24.395Z,3.17
2023-02-28T06:03:11.125Z,3.23
2023-02-28T06:05:58.052Z,3.43
2023-02-28T06:08:45.745Z,2.70
2023-02-28T06:11:32.936Z,3.00
2023-02-28T06:14:21.895Z,3.30
2023-02-28T06:17:08.614Z,2.73
2023-02-28T06:19:55.065Z,2.93
2023-02-28T06:22:41.827Z,3.17
2023-02-28T06:25:29.023Z,3.40
2023-02-28T06:28:15.590Z,3.40
2023-02-28T06:31:08.763Z,3.07
2023-02-28T06:33:55.408Z,3.60
2023-02-28T06:36:42.472Z,3.50
2023-02-28T06:39:29.227Z,3.33
2023-02-28T06:42:15.668Z,3.20
2023-02-28T06:45:04.242Z,3.27
2023-02-28T06:47:53.266Z,3.03
2023-02-28T06:50:40.278Z,3.60
2023-02-28T06:53:26.785Z,3.57
2023-02-28T06:56:16.169Z,5.57
2023-02-28T06:59:02.521Z,5.50
2023-02-28T07:01:49.131Z,6.50
2023-02-28T07:04:37.383Z,6.23
2023-02-28T07:07:23.913Z,6.40
2023-02-28T07:10:12.889Z,5.20
2023-02-28T07:12:59.649Z,4.80
2023-02-28T07:15:46.014Z,4.90
2023-02-28T07:18:32.410Z,5.47
2023-02-28T07:21:20.074Z,5.80
2023-02-28T07:24:07.398Z,6.03
2023-02-28T07:26:54.156Z,6.00
2023-02-28T07:29:40.673Z,5.57
2023-02-28T07:32:27.298Z,7.43
2023-02-28T07:35:16.178Z,5.10
2023-02-28T07:38:05.181Z,5.07
2023-02-28T07:40:51.442Z,6.67
2023-02-28T07:43:38.034Z,4.97
2023-02-28T07:46:24.758Z,6.20
2023-02-28T07:49:11.590Z,4.90
2023-02-28T07:51:58.049Z,5.83
2023-02-28T07:54:45.790Z,5.00
2023-02-28T07:57:35.655Z,6.13
2023-02-28T08:00:22.887Z,4.80
2023-02-28T08:03:13.027Z,4.67
2023-02-28T08:05:59.645Z,4.37
2023-02-28T08:08:46.451Z,4.30
2023-02-28T08:11:35.257Z,4.00
2023-02-28T08:14:21.889Z,4.00
2023-02-28T08:17:08.799Z,4.57
2023-02-28T08:19:55.565Z,4.53
2023-02-28T08:22:44.813Z,4.50
2023-02-28T08:25:32.659Z,4.37
2023-02-28T08:28:20.596Z,5.30
2023-02-28T08:31:10.580Z,6.47
2023-02-28T08:33:59.840Z,7.17
2023-02-28T08:36:46.935Z,6.30
2023-02-28T08:39:36.476Z,5.37
2023-02-28T08:42:22.986Z,4.53
2023-02-28T08:45:11.611Z,4.10
2023-02-28T08:47:58.264Z,3.97
2023-02-28T08:50:48.401Z,4.10
2023-02-28T08:53:37.341Z,4.40
2023-02-28T08:56:24.107Z,4.33
2023-02-28T08:59:11.164Z,4.67
2023-02-28T09:01:59.101Z,4.40
2023-02-28T09:04:46.502Z,3.83
2023-02-28T09:07:33.229Z,3.63
2023-02-28T09:10:19.810Z,4.37
2023-02-28T09:13:06.456Z,3.70
2023-02-28T09:15:52.963Z,3.67
2023-02-28T09:18:41.526Z,3.27
2023-02-28T09:21:29.013Z,3.03
2023-02-28T09:24:16.273Z,3.40
2023-02-28T09:27:05.415Z,3.10
2023-02-28T09:29:52.140Z,3.27
2023-02-28T09:32:38.603Z,3.57
2023-02-28T09:35:27.787Z,3.10
2023-02-28T09:38:14.178Z,2.70
2023-02-28T09:41:02.690Z,2.70
2023-02-28T09:43:52.218Z,2.90
2023-02-28T09:46:42.541Z,3.13
2023-02-28T09:49:37.628Z,2.70
2023-02-28T09:52:30.784Z,2.60
2023-02-28T09:55:24.241Z,2.50
2023-02-28T09:58:20.209Z,2.93
2023-02-28T10:01:12.923Z,2.87
2023-02-28T10:04:05.812Z,2.40
2023-02-28T10:06:53.153Z,2.60
2023-02-28T10:09:41.164Z,2.27
2023-02-28T10:12:31.169Z,2.07
2023-02-28T10:15:19.127Z,2.17
2023-02-28T10:18:11.604Z,1.90
2023-02-28T10:20:59.169Z,1.90
2023-02-28T10:23:48.880Z,1.67
2023-02-28T10:26:38.495Z,1.80
2023-02-28T10:29:25.316Z,1.70
2023-02-28T10:32:16.293Z,1.43
2023-02-28T10:35:12.504Z,1.63
2023-02-28T10:38:01.305Z,1.40
2023-02-28T10:40:48.466Z,1.80
2023-02-28T10:43:36.777Z,1.60
2023-02-28T10:46:27.978Z,1.93
2023-02-28T10:49:19.158Z,1.60
2023-02-28T10:52:05.971Z,1.57
2023-02-28T10:55:16.765Z,1.43
2023-02-28T10:58:03.192Z,1.40
2023-02-28T11:00:51.232Z,1.70
2023-02-28T11:03:37.636Z,1.70
2023-02-28T11:06:27.985Z,1.40
2023-02-28T11:09:25.009Z,1.70
2023-02-28T11:12:27.428Z,1.60
2023-02-28T11:15:25.565Z,1.60
2023-02-28T11:18:25.375Z,2.00
2023-02-28T11:21:18.088Z,1.50
2023-02-28T11:24:09.079Z,1.80
2023-02-28T11:26:56.087Z,1.47
2023-02-28T11:29:49.983Z,1.47
2023-02-28T11:32:36.879Z,1.20
2023-02-28T11:35:28.810Z,1.20
2023-02-28T11:38:15.394Z,1.30
2023-02-28T11:41:15.053Z,1.43
2023-02-28T11:44:13.087Z,1.60
2023-02-28T11:47:03.301Z,1.70
2023-02-28T11:50:03.798Z,1.57
2023-02-28T11:52:55.649Z,1.60
2023-02-28T11:55:46.882Z,1.67
2023-02-28T11:58:48.031Z,2.03
2023-02-28T12:01:54.422Z,1.60
2023-02-28T12:04:56.912Z,1.70
2023-02-28T12:07:57.545Z,1.43
2023-02-28T12:10:54.784Z,1.70
2023-02-28T12:13:50.663Z,1.70
2023-02-28T12:16:49.717Z,1.63
2023-02-28T12:19:45.606Z,2.00
2023-02-28T12:22:33.947Z,2.07
2023-02-28T12:25:49.257Z,1.77
2023-02-28T12:28:38.429Z,1.50
2023-02-28T12:31:30.066Z,1.40
2023-02-28T12:34:22.559Z,1.53
2023-02-28T12:37:13.478Z,1.90
2023-02-28T12:40:13.696Z,1.87
2023-02-28T12:43:06.363Z,1.50
2023-02-28T12:45:57.199Z,1.50
2023-02-28T12:48:48.147Z,1.40
2023-02-28T12:51:37.233Z,1.43
2023-02-28T12:54:31.983Z,1.63
2023-02-28T12:57:27.646Z,1.30
2023-02-28T13:00:18.991Z,1.17
2023-02-28T13:03:41.440Z,1.27
2023-02-28T13:06:47.517Z,1.47
2023-02-28T13:09:34.125Z,1.40
2023-02-28T13:12:21.545Z,1.47
2023-02-28T13:15:16.121Z,1.40
2023-02-28T13:18:03.836Z,1.20
2023-02-28T13:20:52.303Z,1.40
2023-02-28T13:23:59.507Z,1.00
2023-02-28T13:27:32.248Z,1.47
2023-02-28T13:30:56.894Z,1.03
2023-02-28T13:34:14.830Z,1.20
2023-02-28T13:37:36.627Z,1.30
2023-02-28T13:40:38.037Z,1.40
2023-02-28T13:44:04.225Z,1.40
2023-02-28T13:47:23.987Z,1.33
2023-02-28T13:50:29.233Z,1.20
2023-02-28T13:53:54.449Z,1.20
2023-02-28T13:56:51.126Z,1.20
2023-02-28T13:59:48.800Z,1.17
2023-02-28T14:02:51.269Z,1.10
2023-02-28T14:05:39.893Z,1.50
2023-02-28T14:08:26.644Z,1.43
2023-02-28T14:11:28.184Z,1.10
2023-02-28T14:14:58.947Z,1.17
2023-02-28T14:17:46.328Z,1.20
2023-02-28T14:20:35.619Z,1.43
2023-02-28T14:23:47.402Z,1.33
2023-02-28T14:26:50.123Z,1.17
2023-02-28T14:29:53.462Z,1.20
2023-02-28T14:32:49.636Z,1.40
2023-02-28T14:35:52.123Z,1.40
2023-02-28T14:38:44.854Z,1.30
2023-02-28T14:41:36.306Z,1.57
2023-02-28T14:44:25.322Z,1.23
2023-02-28T14:47:17.758Z,1.30
2023-02-28T14:50:07.362Z,1.33
2023-02-28T14:52:56.044Z,1.10
2023-02-28T14:55:47.812Z,0.97
2023-02-28T14:58:35.868Z,1.40
2023-02-28T15:01:24.304Z,1.30
2023-02-28T15:04:25.115Z,1.33
2023-02-28T15:07:15.160Z,0.97
2023-02-28T15:10:13.472Z,1.10
2023-02-28T15:13:02.339Z,1.40
2023-02-28T15:16:03.774Z,1.20
2023-02-28T15:18:53.546Z,1.30
2023-02-28T15:21:43.603Z,1.30
2023-02-28T15:24:40.220Z,1.50
2023-02-28T15:27:32.105Z,1.40
2023-02-28T15:30:22.608Z,1.50
2023-02-28T15:33:21.522Z,1.80
2023-02-28T15:36:14.410Z,1.43
2023-02-28T15:39:10.748Z,1.47
2023-02-28T15:42:19.800Z,1.57
2023-02-28T15:45:07.316Z,1.40
2023-02-28T15:47:54.790Z,1.37
2023-02-28T15:50:43.437Z,1.57
2023-02-28T15:53:35.300Z,1.47
2023-02-28T15:56:27.176Z,1.40
2023-02-28T15:59:20.139Z,1.70
2023-02-28T16:02:19.604Z,1.60
2023-02-28T16:05:28.788Z,2.00
2023-02-28T16:08:17.211Z,1.20
2023-02-28T16:11:03.580Z,1.30
2023-02-28T16:13:50.680Z,1.20
2023-02-28T16:16:45.890Z,1.27
2023-02-28T16:19:33.899Z,1.60
2023-02-28T16:22:21.268Z,1.43
2023-02-28T16:25:09.019Z,1.20
2023-02-28T16:27:58.546Z,1.80
2023-02-28T16:30:45.076Z,1.40
2023-02-28T16:33:33.922Z,1.43
2023-02-28T16:36:24.256Z,2.17
2023-02-28T16:39:11.162Z,2.70
2023-02-28T16:41:57.722Z,2.50
2023-02-28T16:44:44.706Z,2.30
2023-02-28T16:47:32.881Z,1.67
2023-02-28T16:50:23.793Z,1.47
2023-02-28T16:53:10.289Z,1.70
2023-02-28T16:55:56.638Z,2.67
2023-02-28T16:58:43.229Z,3.30
2023-02-28T17:01:30.723Z,3.20
2023-02-28T17:04:17.284Z,3.40
2023-02-28T17:07:05.026Z,4.37
2023-02-28T17:09:51.483Z,2.70
2023-02-28T17:12:37.885Z,2.47
2023-02-28T17:15:24.970Z,1.80
2023-02-28T17:18:15.827Z,1.80
2023-02-28T17:21:02.393Z,1.67
2023-02-28T17:23:50.196Z,2.30
2023-02-28T17:26:37.042Z,1.90
2023-02-28T17:29:25.448Z,1.80
2023-02-28T17:32:19.002Z,1.73
2023-02-28T17:35:06.531Z,1.83
2023-02-28T17:37:53.414Z,1.47
2023-02-28T17:40:41.617Z,1.97
2023-02-28T17:43:29.599Z,1.60
2023-02-28T17:46:21.352Z,1.40
2023-02-28T17:49:08.091Z,1.90
2023-02-28T17:51:54.478Z,1.67
2023-02-28T17:54:40.919Z,1.77
2023-02-28T17:57:28.604Z,1.67
2023-02-28T18:00:18.338Z,1.90
2023-02-28T18:03:05.131Z,1.90
2023-02-28T18:05:52.267Z,2.10
2023-02-28T18:08:38.767Z,1.87
2023-02-28T18:11:27.100Z,1.90
2023-02-28T18:14:15.916Z,2.07
2023-02-28T18:17:02.664Z,1.70
2023-02-28T18:19:49.031Z,2.07
2023-02-28T18:22:37.047Z,2.30
2023-02-28T18:25:24.025Z,2.53
2023-02-28T18:28:10.327Z,2.70
2023-02-28T18:30:58.127Z,2.83
2023-02-28T18:33:44.728Z,2.77
2023-02-28T18:36:31.351Z,2.77
2023-02-28T18:39:18.543Z,3.03
2023-02-28T18:42:05.094Z,3.00
2023-02-28T18:44:51.521Z,4.00
2023-02-28T18:47:39.251Z,3.20
2023-02-28T18:50:25.850Z,3.73
2023-02-28T18:53:12.440Z,4.23
2023-02-28T18:56:01.870Z,4.13
2023-02-28T18:58:48.919Z,4.30
2023-02-28T19:01:36.402Z,4.83
2023-02-28T19:04:24.161Z,4.83
2023-02-28T19:07:10.486Z,4.87
2023-02-28T19:09:56.802Z,6.00
2023-02-28T19:12:43.554Z,5.10
2023-02-28T19:15:29.938Z,5.20
2023-02-28T19:18:16.371Z,5.30
2023-02-28T19:21:04.112Z,5.40
2023-02-28T19:23:50.809Z,5.53
2023-02-28T19:26:37.696Z,6.00
2023-02-28T19:29:24.408Z,5.53
2023-02-28T19:32:10.796Z,6.00
2023-02-28T19:34:57.506Z,6.13
2023-02-28T19:37:45.362Z,6.30
2023-02-28T19:40:31.815Z,5.77
2023-02-28T19:43:18.202Z,5.83
2023-02-28T19:46:04.800Z,6.30
2023-02-28T19:48:54.646Z,7.50
2023-02-28T19:51:41.164Z,8.33
2023-02-28T19:54:29.128Z,8.03
2023-02-28T19:57:15.844Z,7.93
2023-02-28T20:00:02.231Z,8.87
2023-02-28T20:02:48.777Z,9.67
2023-02-28T20:05:35.150Z,10.67
2023-02-28T20:08:21.569Z,10.27
2023-02-28T20:11:11.731Z,10.50
2023-02-28T20:13:59.248Z,9.03
2023-02-28T20:16:46.130Z,8.70
2023-02-28T20:19:32.686Z,7.97
2023-02-28T20:22:19.176Z,8.27
2023-02-28T20:25:06.183Z,7.07
2023-02-28T20:27:54.170Z,7.07
2023-02-28T20:30:41.939Z,6.97
2023-02-28T20:33:28.923Z,6.67
2023-02-28T20:36:16.112Z,7.10
2023-02-28T20:39:02.926Z,6.87
2023-02-28T20:41:49.608Z,7.00
2023-02-28T20:44:37.360Z,6.77
2023-02-28T20:47:23.727Z,7.10
2023-02-28T20:50:11.523Z,6.50
2023-02-28T20:52:57.855Z,6.90
2023-02-28T20:55:54.070Z,6.53
2023-02-28T20:58:40.995Z,7.20
2023-02-28T21:01:30.540Z,7.23
2023-02-28T21:04:16.850Z,7.30
2023-02-28T21:07:03.416Z,7.47
2023-02-28T21:09:49.851Z,7.07
2023-02-28T21:12:36.289Z,6.60
2023-02-28T21:15:22.824Z,7.03
2023-02-28T21:18:10.628Z,7.03
2023-02-28T21:21:02.974Z,7.07
2023-02-28T21:23:50.376Z,8.00
2023-02-28T21:26:37.313Z,7.77
2023-02-28T21:29:24.090Z,7.60
2023-02-28T21:32:10.667Z,7.60
2023-02-28T21:34:59.086Z,7.87
2023-02-28T21:37:45.708Z,7.90
2023-02-28T21:40:32.170Z,8.13
2023-02-28T21:43:18.762Z,8.23
2023-02-28T21:46:06.709Z,8.10
2023-02-28T21:48:53.465Z,8.63
2023-02-28T21:51:42.705Z,8.50
2023-02-28T21:54:29.136Z,8.17
2023-02-28T21:57:16.088Z,8.53
2023-02-28T22:00:04.668Z,8.10
2023-02-28T22:02:51.296Z,7.57
2023-02-28T22:05:38.135Z,7.67
2023-02-28T22:08:26.191Z,7.23
2023-02-28T22:11:13.694Z,6.50
2023-02-28T22:14:00.841Z,6.53
2023-02-28T22:16:52.041Z,6.37
2023-02-28T22:19:39.339Z,6.47
2023-02-28T22:22:25.996Z,6.63
2023-02-28T22:25:14.259Z,5.93
2023-02-28T22:28:00.947Z,6.00
2023-02-28T22:30:47.412Z,5.43
2023-02-28T22:33:33.917Z,6.20
2023-02-28T22:36:21.159Z,5.97
2023-02-28T22:39:07.489Z,5.63
2023-02-28T22:41:57.144Z,6.03
2023-02-28T22:44:46.721Z,5.03
2023-02-28T22:47:33.121Z,5.53
2023-02-28T22:50:19.729Z,6.00
2023-02-28T22:53:06.041Z,5.73
2023-02-28T22:55:56.291Z,5.20
2023-02-28T22:58:45.504Z,5.50
2023-02-28T23:01:34.988Z,5.57
2023-02-28T23:04:25.683Z,5.27
2023-02-28T23:07:12.350Z,5.40
2023-02-28T23:09:58.918Z,5.53
2023-02-28T23:12:51.283Z,5.60
2023-02-28T23:15:41.180Z,5.57
2023-02-28T23:18:27.713Z,5.13
2023-02-28T23:21:14.552Z,5.27
2023-02-28T23:24:03.261Z,5.27
2023-02-28T23:26:52.112Z,5.67
2023-02-28T23:29:38.726Z,5.17
2023-02-28T23:32:26.916Z,5.23
2023-02-28T23:35:13.575Z,5.47
2023-02-28T23:38:00.380Z,5.43
2023-02-28T23:40:47.909Z,5.23
2023-02-28T23:43:34.558Z,5.17
2023-02-28T23:46:22.117Z,4.83
2023-02-28T23:49:10.276Z,4.80
2023-02-28T23:51:57.598Z,4.67
2023-02-28T23:54:44.255Z,4.93
2023-02-28T23:57:30.762Z,5.30
